sensor_id;sensor_type;location;lat;lon;timestamp;temperature;humidity
16974;DHT22;8603;46.944;7.412;2023-07-20T00:02:15;19.10;99.90
16974;DHT22;8603;46.944;7.412;2023-07-20T00:04:40;19.10;99.90
16974;DHT22;8603;46.944;7.412;2023-07-20T00:07:06;19.10;99.90
16974;DHT22;8603;46.944;7.412;2023-07-20T00:09:31;19.00;99.90
16974;DHT22;8603;46.944;7.412;2023-07-20T00:11:57;18.90;99.90
16974;DHT22;8603;46.944;7.412;2023-07-20T00:14:25;18.90;99.90
16974;DHT22;8603;46.944;7.412;2023-07-20T00:16:50;18.80;99.90
16974;DHT22;8603;46.944;7.412;2023-07-20T00:19:26;18.70;99.90
16974;DHT22;8603;46.944;7.412;2023-07-20T00:21:52;18.60;99.90
16974;DHT22;8603;46.944;7.412;2023-07-20T00:24:18;18.60;99.90
16974;DHT22;8603;46.944;7.412;2023-07-20T00:26:44;18.60;99.90
16974;DHT22;8603;46.944;7.412;2023-07-20T00:29:10;18.50;99.90
16974;DHT22;8603;46.944;7.412;2023-07-20T00:31:36;18.40;99.90
16974;DHT22;8603;46.944;7.412;2023-07-20T00:34:05;18.40;99.90
16974;DHT22;8603;46.944;7.412;2023-07-20T00:36:31;18.40;99.90
16974;DHT22;8603;46.944;7.412;2023-07-20T00:38:57;18.30;99.90
16974;DHT22;8603;46.944;7.412;2023-07-20T00:41:22;18.30;99.90
16974;DHT22;8603;46.944;7.412;2023-07-20T00:43:48;18.20;99.90
16974;DHT22;8603;46.944;7.412;2023-07-20T00:46:14;18.10;99.90
16974;DHT22;8603;46.944;7.412;2023-07-20T00:48:40;18.10;99.90
16974;DHT22;8603;46.944;7.412;2023-07-20T00:51:07;18.00;99.90
16974;DHT22;8603;46.944;7.412;2023-07-20T00:53:32;17.90;99.90
16974;DHT22;8603;46.944;7.412;2023-07-20T00:55:58;17.80;99.90
16974;DHT22;8603;46.944;7.412;2023-07-20T00:58:24;17.70;99.90
16974;DHT22;8603;46.944;7.412;2023-07-20T01:00:50;17.80;99.90
16974;DHT22;8603;46.944;7.412;2023-07-20T01:03:15;17.70;99.90
16974;DHT22;8603;46.944;7.412;2023-07-20T01:13:54;17.40;99.90
16974;DHT22;8603;46.944;7.412;2023-07-20T01:16:20;17.40;99.90
16974;DHT22;8603;46.944;7.412;2023-07-20T01:18:45;17.30;99.90
16974;DHT22;8603;46.944;7.412;2023-07-20T01:21:20;17.20;99.90
16974;DHT22;8603;46.944;7.412;2023-07-20T01:23:55;17.20;99.90
16974;DHT22;8603;46.944;7.412;2023-07-20T01:26:35;17.10;99.90
16974;DHT22;8603;46.944;7.412;2023-07-20T01:31:54;16.90;99.90
16974;DHT22;8603;46.944;7.412;2023-07-20T01:34:23;16.90;99.90
16974;DHT22;8603;46.944;7.412;2023-07-20T01:36:50;16.90;99.90
16974;DHT22;8603;46.944;7.412;2023-07-20T01:39:19;16.80;99.90
16974;DHT22;8603;46.944;7.412;2023-07-20T01:41:45;16.80;99.90
16974;DHT22;8603;46.944;7.412;2023-07-20T01:44:11;16.80;99.90
16974;DHT22;8603;46.944;7.412;2023-07-20T01:46:37;16.70;99.90
16974;DHT22;8603;46.944;7.412;2023-07-20T01:49:03;16.70;99.90
16974;DHT22;8603;46.944;7.412;2023-07-20T01:51:29;16.70;99.90
16974;DHT22;8603;46.944;7.412;2023-07-20T01:53:54;16.70;99.90
16974;DHT22;8603;46.944;7.412;2023-07-20T01:56:20;16.70;99.90
16974;DHT22;8603;46.944;7.412;2023-07-20T01:58:45;16.70;99.90
16974;DHT22;8603;46.944;7.412;2023-07-20T02:01:11;16.70;99.90
16974;DHT22;8603;46.944;7.412;2023-07-20T02:03:37;16.70;99.90
16974;DHT22;8603;46.944;7.412;2023-07-20T02:06:02;16.60;99.90
16974;DHT22;8603;46.944;7.412;2023-07-20T02:08:28;16.60;99.90
16974;DHT22;8603;46.944;7.412;2023-07-20T02:10:53;16.60;99.90
16974;DHT22;8603;46.944;7.412;2023-07-20T02:13:19;16.50;99.90
16974;DHT22;8603;46.944;7.412;2023-07-20T02:15:44;16.50;99.90
16974;DHT22;8603;46.944;7.412;2023-07-20T02:18:12;16.50;99.90
16974;DHT22;8603;46.944;7.412;2023-07-20T02:20:38;16.50;99.90
16974;DHT22;8603;46.944;7.412;2023-07-20T02:23:05;16.40;99.90
16974;DHT22;8603;46.944;7.412;2023-07-20T02:25:31;16.30;99.90
16974;DHT22;8603;46.944;7.412;2023-07-20T02:27:56;16.40;99.90
16974;DHT22;8603;46.944;7.412;2023-07-20T02:30:22;16.30;99.90
16974;DHT22;8603;46.944;7.412;2023-07-20T02:32:48;16.30;99.90
16974;DHT22;8603;46.944;7.412;2023-07-20T02:35:14;16.20;99.90
16974;DHT22;8603;46.944;7.412;2023-07-20T02:37:40;16.20;99.90
16974;DHT22;8603;46.944;7.412;2023-07-20T02:40:06;16.20;99.90
16974;DHT22;8603;46.944;7.412;2023-07-20T02:42:33;16.10;99.90
16974;DHT22;8603;46.944;7.412;2023-07-20T02:44:58;16.10;99.90
16974;DHT22;8603;46.944;7.412;2023-07-20T02:47:24;16.00;99.90
16974;DHT22;8603;46.944;7.412;2023-07-20T02:49:50;16.00;99.90
16974;DHT22;8603;46.944;7.412;2023-07-20T02:52:15;15.90;99.90
16974;DHT22;8603;46.944;7.412;2023-07-20T02:54:41;15.90;99.90
16974;DHT22;8603;46.944;7.412;2023-07-20T02:57:06;15.90;99.90
16974;DHT22;8603;46.944;7.412;2023-07-20T02:59:32;15.80;99.90
16974;DHT22;8603;46.944;7.412;2023-07-20T03:01:57;15.80;99.90
16974;DHT22;8603;46.944;7.412;2023-07-20T03:04:26;15.80;99.90
16974;DHT22;8603;46.944;7.412;2023-07-20T03:06:52;15.80;99.90
16974;DHT22;8603;46.944;7.412;2023-07-20T03:09:17;15.80;99.90
16974;DHT22;8603;46.944;7.412;2023-07-20T03:11:43;15.80;99.90
16974;DHT22;8603;46.944;7.412;2023-07-20T03:14:08;15.80;99.90
16974;DHT22;8603;46.944;7.412;2023-07-20T03:16:35;15.70;99.90
16974;DHT22;8603;46.944;7.412;2023-07-20T03:19:01;15.70;99.90
16974;DHT22;8603;46.944;7.412;2023-07-20T03:21:27;15.70;99.90
16974;DHT22;8603;46.944;7.412;2023-07-20T03:23:52;15.60;99.90
16974;DHT22;8603;46.944;7.412;2023-07-20T03:26:19;15.70;99.90
16974;DHT22;8603;46.944;7.412;2023-07-20T03:28:44;15.70;99.90
16974;DHT22;8603;46.944;7.412;2023-07-20T03:31:10;15.70;99.90
16974;DHT22;8603;46.944;7.412;2023-07-20T03:33:36;15.70;99.90
16974;DHT22;8603;46.944;7.412;2023-07-20T03:36:01;15.60;99.90
16974;DHT22;8603;46.944;7.412;2023-07-20T03:38:27;15.70;99.90
16974;DHT22;8603;46.944;7.412;2023-07-20T03:41:00;15.60;99.90
16974;DHT22;8603;46.944;7.412;2023-07-20T03:43:27;15.60;99.90
16974;DHT22;8603;46.944;7.412;2023-07-20T03:45:53;15.50;99.90
16974;DHT22;8603;46.944;7.412;2023-07-20T03:48:21;15.50;99.90
16974;DHT22;8603;46.944;7.412;2023-07-20T03:50:49;15.50;99.90
16974;DHT22;8603;46.944;7.412;2023-07-20T03:53:15;15.40;99.90
16974;DHT22;8603;46.944;7.412;2023-07-20T03:55:45;15.30;99.90
16974;DHT22;8603;46.944;7.412;2023-07-20T03:58:12;15.30;99.90
16974;DHT22;8603;46.944;7.412;2023-07-20T04:00:37;15.30;99.90
16974;DHT22;8603;46.944;7.412;2023-07-20T04:03:03;15.30;99.90
16974;DHT22;8603;46.944;7.412;2023-07-20T04:05:28;15.20;99.90
16974;DHT22;8603;46.944;7.412;2023-07-20T04:07:54;15.10;99.90
16974;DHT22;8603;46.944;7.412;2023-07-20T04:10:19;15.10;99.90
16974;DHT22;8603;46.944;7.412;2023-07-20T04:12:45;15.10;99.90
16974;DHT22;8603;46.944;7.412;2023-07-20T04:15:12;15.00;99.90
16974;DHT22;8603;46.944;7.412;2023-07-20T04:17:38;15.10;99.90
16974;DHT22;8603;46.944;7.412;2023-07-20T04:20:05;15.00;99.90
16974;DHT22;8603;46.944;7.412;2023-07-20T04:22:31;15.00;99.90
16974;DHT22;8603;46.944;7.412;2023-07-20T04:24:56;15.00;99.90
16974;DHT22;8603;46.944;7.412;2023-07-20T04:27:22;15.00;99.90
16974;DHT22;8603;46.944;7.412;2023-07-20T04:29:48;15.00;99.90
16974;DHT22;8603;46.944;7.412;2023-07-20T04:32:13;15.10;99.90
16974;DHT22;8603;46.944;7.412;2023-07-20T04:34:39;15.10;99.90
16974;DHT22;8603;46.944;7.412;2023-07-20T04:37:04;15.10;99.90
16974;DHT22;8603;46.944;7.412;2023-07-20T04:39:30;15.20;99.90
16974;DHT22;8603;46.944;7.412;2023-07-20T04:41:56;15.30;99.90
16974;DHT22;8603;46.944;7.412;2023-07-20T04:44:22;15.40;99.90
16974;DHT22;8603;46.944;7.412;2023-07-20T04:46:47;15.50;99.90
16974;DHT22;8603;46.944;7.412;2023-07-20T04:49:13;15.60;99.90
16974;DHT22;8603;46.944;7.412;2023-07-20T04:51:39;15.80;99.90
16974;DHT22;8603;46.944;7.412;2023-07-20T04:54:04;15.90;99.90
16974;DHT22;8603;46.944;7.412;2023-07-20T04:56:30;16.00;99.90
16974;DHT22;8603;46.944;7.412;2023-07-20T04:58:56;16.10;99.90
16974;DHT22;8603;46.944;7.412;2023-07-20T05:01:22;16.20;99.90
16974;DHT22;8603;46.944;7.412;2023-07-20T05:03:48;16.30;99.90
16974;DHT22;8603;46.944;7.412;2023-07-20T05:06:14;16.40;99.90
16974;DHT22;8603;46.944;7.412;2023-07-20T05:08:40;16.40;99.90
16974;DHT22;8603;46.944;7.412;2023-07-20T05:11:05;16.50;99.90
16974;DHT22;8603;46.944;7.412;2023-07-20T05:13:34;16.60;99.90
16974;DHT22;8603;46.944;7.412;2023-07-20T05:16:00;16.60;99.90
16974;DHT22;8603;46.944;7.412;2023-07-20T05:18:25;16.70;99.90
16974;DHT22;8603;46.944;7.412;2023-07-20T05:20:51;16.80;99.90
16974;DHT22;8603;46.944;7.412;2023-07-20T05:23:20;16.90;99.90
16974;DHT22;8603;46.944;7.412;2023-07-20T05:25:46;17.00;99.90
16974;DHT22;8603;46.944;7.412;2023-07-20T05:28:12;17.10;99.90
16974;DHT22;8603;46.944;7.412;2023-07-20T05:30:37;17.30;99.90
16974;DHT22;8603;46.944;7.412;2023-07-20T05:33:03;17.40;99.90
16974;DHT22;8603;46.944;7.412;2023-07-20T05:35:28;17.60;99.90
16974;DHT22;8603;46.944;7.412;2023-07-20T05:37:54;17.80;99.90
16974;DHT22;8603;46.944;7.412;2023-07-20T05:40:20;18.00;99.90
16974;DHT22;8603;46.944;7.412;2023-07-20T05:42:46;18.20;99.90
16974;DHT22;8603;46.944;7.412;2023-07-20T05:45:13;18.30;99.90
16974;DHT22;8603;46.944;7.412;2023-07-20T05:47:39;18.50;99.90
16974;DHT22;8603;46.944;7.412;2023-07-20T05:50:05;18.60;99.90
16974;DHT22;8603;46.944;7.412;2023-07-20T05:52:31;18.60;99.90
16974;DHT22;8603;46.944;7.412;2023-07-20T05:54:57;18.70;99.90
16974;DHT22;8603;46.944;7.412;2023-07-20T05:57:22;18.70;99.90
16974;DHT22;8603;46.944;7.412;2023-07-20T05:59:48;18.70;99.90
16974;DHT22;8603;46.944;7.412;2023-07-20T06:02:14;18.70;99.90
16974;DHT22;8603;46.944;7.412;2023-07-20T06:04:40;18.70;99.90
16974;DHT22;8603;46.944;7.412;2023-07-20T06:07:05;18.70;99.90
16974;DHT22;8603;46.944;7.412;2023-07-20T06:09:33;18.80;99.90
16974;DHT22;8603;46.944;7.412;2023-07-20T06:11:59;18.90;99.90
16974;DHT22;8603;46.944;7.412;2023-07-20T06:14:24;19.10;99.90
16974;DHT22;8603;46.944;7.412;2023-07-20T06:16:50;19.10;99.90
16974;DHT22;8603;46.944;7.412;2023-07-20T06:19:15;19.10;99.90
16974;DHT22;8603;46.944;7.412;2023-07-20T06:21:41;19.20;99.90
16974;DHT22;8603;46.944;7.412;2023-07-20T06:24:07;19.20;99.90
16974;DHT22;8603;46.944;7.412;2023-07-20T06:26:33;19.20;99.90
16974;DHT22;8603;46.944;7.412;2023-07-20T06:29:07;19.20;99.90
16974;DHT22;8603;46.944;7.412;2023-07-20T06:31:33;19.20;99.90
16974;DHT22;8603;46.944;7.412;2023-07-20T06:33:59;19.20;99.90
16974;DHT22;8603;46.944;7.412;2023-07-20T06:36:25;19.30;99.90
16974;DHT22;8603;46.944;7.412;2023-07-20T06:38:51;19.40;99.90
16974;DHT22;8603;46.944;7.412;2023-07-20T06:41:17;19.60;99.90
16974;DHT22;8603;46.944;7.412;2023-07-20T06:43:43;19.80;99.90
16974;DHT22;8603;46.944;7.412;2023-07-20T06:46:08;20.00;99.90
16974;DHT22;8603;46.944;7.412;2023-07-20T06:48:34;20.20;99.90
16974;DHT22;8603;46.944;7.412;2023-07-20T06:51:00;20.60;99.90
16974;DHT22;8603;46.944;7.412;2023-07-20T06:53:25;20.80;99.90
16974;DHT22;8603;46.944;7.412;2023-07-20T06:55:51;21.10;99.90
16974;DHT22;8603;46.944;7.412;2023-07-20T06:58:17;21.60;99.90
16974;DHT22;8603;46.944;7.412;2023-07-20T07:00:43;23.00;99.90
16974;DHT22;8603;46.944;7.412;2023-07-20T07:03:10;23.90;99.90
16974;DHT22;8603;46.944;7.412;2023-07-20T07:05:38;24.80;99.90
16974;DHT22;8603;46.944;7.412;2023-07-20T07:08:05;25.50;99.90
16974;DHT22;8603;46.944;7.412;2023-07-20T07:10:31;26.60;99.90
16974;DHT22;8603;46.944;7.412;2023-07-20T07:12:56;27.00;99.90
16974;DHT22;8603;46.944;7.412;2023-07-20T07:15:22;27.10;99.90
16974;DHT22;8603;46.944;7.412;2023-07-20T07:17:47;27.20;99.90
16974;DHT22;8603;46.944;7.412;2023-07-20T07:20:13;27.40;99.90
16974;DHT22;8603;46.944;7.412;2023-07-20T07:22:39;27.50;99.90
16974;DHT22;8603;46.944;7.412;2023-07-20T07:25:04;27.50;99.90
16974;DHT22;8603;46.944;7.412;2023-07-20T07:27:30;27.40;99.90
16974;DHT22;8603;46.944;7.412;2023-07-20T07:29:56;27.30;99.90
16974;DHT22;8603;46.944;7.412;2023-07-20T07:32:21;27.50;99.90
16974;DHT22;8603;46.944;7.412;2023-07-20T07:34:47;27.80;99.90
16974;DHT22;8603;46.944;7.412;2023-07-20T07:37:14;28.30;99.90
16974;DHT22;8603;46.944;7.412;2023-07-20T07:39:39;29.00;99.90
16974;DHT22;8603;46.944;7.412;2023-07-20T07:42:05;29.70;99.90
16974;DHT22;8603;46.944;7.412;2023-07-20T07:44:31;31.20;97.90
16974;DHT22;8603;46.944;7.412;2023-07-20T07:46:57;33.40;94.40
16974;DHT22;8603;46.944;7.412;2023-07-20T07:49:23;35.80;90.80
16974;DHT22;8603;46.944;7.412;2023-07-20T07:51:48;37.70;83.20
16974;DHT22;8603;46.944;7.412;2023-07-20T07:54:14;39.30;78.10
16974;DHT22;8603;46.944;7.412;2023-07-20T07:56:40;40.60;74.00
16974;DHT22;8603;46.944;7.412;2023-07-20T07:59:06;41.60;68.80
16974;DHT22;8603;46.944;7.412;2023-07-20T08:01:32;42.20;64.80
16974;DHT22;8603;46.944;7.412;2023-07-20T08:03:57;42.40;63.40
16974;DHT22;8603;46.944;7.412;2023-07-20T08:06:23;42.60;61.20
16974;DHT22;8603;46.944;7.412;2023-07-20T08:08:49;42.90;61.10
16974;DHT22;8603;46.944;7.412;2023-07-20T08:11:18;43.60;60.10
16974;DHT22;8603;46.944;7.412;2023-07-20T08:13:44;44.10;58.50
16974;DHT22;8603;46.944;7.412;2023-07-20T08:16:09;44.50;58.10
16974;DHT22;8603;46.944;7.412;2023-07-20T08:18:35;44.60;57.30
16974;DHT22;8603;46.944;7.412;2023-07-20T08:21:00;44.70;57.20
16974;DHT22;8603;46.944;7.412;2023-07-20T08:23:26;44.60;55.70
16974;DHT22;8603;46.944;7.412;2023-07-20T08:25:53;44.40;55.40
16974;DHT22;8603;46.944;7.412;2023-07-20T08:28:18;44.60;56.30
16974;DHT22;8603;46.944;7.412;2023-07-20T08:30:48;44.90;55.10
16974;DHT22;8603;46.944;7.412;2023-07-20T08:33:16;45.10;53.10
16974;DHT22;8603;46.944;7.412;2023-07-20T08:35:42;45.20;52.70
16974;DHT22;8603;46.944;7.412;2023-07-20T08:38:08;45.50;52.50
16974;DHT22;8603;46.944;7.412;2023-07-20T08:40:39;45.70;51.70
16974;DHT22;8603;46.944;7.412;2023-07-20T08:43:04;46.00;51.70
16974;DHT22;8603;46.944;7.412;2023-07-20T08:45:33;46.00;51.50
16974;DHT22;8603;46.944;7.412;2023-07-20T08:48:00;45.70;51.40
16974;DHT22;8603;46.944;7.412;2023-07-20T08:50:27;45.50;52.70
16974;DHT22;8603;46.944;7.412;2023-07-20T08:52:56;45.40;51.50
16974;DHT22;8603;46.944;7.412;2023-07-20T08:55:23;45.40;51.70
16974;DHT22;8603;46.944;7.412;2023-07-20T08:57:50;45.30;51.00
16974;DHT22;8603;46.944;7.412;2023-07-20T09:00:19;44.80;51.30
16974;DHT22;8603;46.944;7.412;2023-07-20T09:02:46;44.60;52.00
16974;DHT22;8603;46.944;7.412;2023-07-20T09:05:12;44.60;52.10
16974;DHT22;8603;46.944;7.412;2023-07-20T09:07:40;44.50;51.70
16974;DHT22;8603;46.944;7.412;2023-07-20T09:10:07;44.30;52.90
16974;DHT22;8603;46.944;7.412;2023-07-20T09:12:37;44.00;52.10
16974;DHT22;8603;46.944;7.412;2023-07-20T09:15:04;43.60;52.80
16974;DHT22;8603;46.944;7.412;2023-07-20T09:17:30;43.50;52.10
16974;DHT22;8603;46.944;7.412;2023-07-20T09:19:55;43.70;53.10
16974;DHT22;8603;46.944;7.412;2023-07-20T09:22:21;43.40;52.00
16974;DHT22;8603;46.944;7.412;2023-07-20T09:24:46;42.90;52.70
16974;DHT22;8603;46.944;7.412;2023-07-20T09:27:12;42.40;53.10
16974;DHT22;8603;46.944;7.412;2023-07-20T09:29:48;41.90;53.60
16974;DHT22;8603;46.944;7.412;2023-07-20T09:32:21;41.10;54.00
16974;DHT22;8603;46.944;7.412;2023-07-20T09:35:02;40.50;54.00
16974;DHT22;8603;46.944;7.412;2023-07-20T09:37:28;40.10;54.60
16974;DHT22;8603;46.944;7.412;2023-07-20T09:39:53;39.30;54.70
16974;DHT22;8603;46.944;7.412;2023-07-20T09:42:22;38.70;57.00
16974;DHT22;8603;46.944;7.412;2023-07-20T09:44:48;38.60;56.90
16974;DHT22;8603;46.944;7.412;2023-07-20T09:47:22;38.20;56.60
16974;DHT22;8603;46.944;7.412;2023-07-20T09:49:48;37.80;56.90
16974;DHT22;8603;46.944;7.412;2023-07-20T09:52:15;37.30;57.30
16974;DHT22;8603;46.944;7.412;2023-07-20T09:54:44;36.80;58.20
16974;DHT22;8603;46.944;7.412;2023-07-20T09:57:11;36.20;58.50
16974;DHT22;8603;46.944;7.412;2023-07-20T09:59:39;35.70;58.60
16974;DHT22;8603;46.944;7.412;2023-07-20T10:02:09;35.40;59.40
16974;DHT22;8603;46.944;7.412;2023-07-20T10:04:37;34.90;61.60
16974;DHT22;8603;46.944;7.412;2023-07-20T10:07:05;34.30;60.60
16974;DHT22;8603;46.944;7.412;2023-07-20T10:09:39;33.60;62.20
16974;DHT22;8603;46.944;7.412;2023-07-20T10:12:05;33.10;63.90
16974;DHT22;8603;46.944;7.412;2023-07-20T10:14:35;32.70;63.70
16974;DHT22;8603;46.944;7.412;2023-07-20T10:17:05;32.40;63.50
16974;DHT22;8603;46.944;7.412;2023-07-20T10:19:38;32.20;65.70
16974;DHT22;8603;46.944;7.412;2023-07-20T10:22:12;32.00;67.80
16974;DHT22;8603;46.944;7.412;2023-07-20T10:24:39;31.80;67.40
16974;DHT22;8603;46.944;7.412;2023-07-20T10:27:07;31.80;65.70
16974;DHT22;8603;46.944;7.412;2023-07-20T10:29:32;31.60;65.50
16974;DHT22;8603;46.944;7.412;2023-07-20T10:31:59;31.40;65.40
16974;DHT22;8603;46.944;7.412;2023-07-20T10:34:25;31.20;67.90
16974;DHT22;8603;46.944;7.412;2023-07-20T10:36:50;31.00;66.40
16974;DHT22;8603;46.944;7.412;2023-07-20T10:42:09;30.80;66.90
16974;DHT22;8603;46.944;7.412;2023-07-20T10:44:39;30.60;67.10
16974;DHT22;8603;46.944;7.412;2023-07-20T10:47:10;30.60;67.30
16974;DHT22;8603;46.944;7.412;2023-07-20T10:49:59;30.50;70.10
16974;DHT22;8603;46.944;7.412;2023-07-20T10:52:39;30.40;68.40
16974;DHT22;8603;46.944;7.412;2023-07-20T10:55:14;30.30;70.10
16974;DHT22;8603;46.944;7.412;2023-07-20T10:57:40;30.30;68.50
16974;DHT22;8603;46.944;7.412;2023-07-20T11:00:10;30.20;67.20
16974;DHT22;8603;46.944;7.412;2023-07-20T11:02:47;30.10;67.30
16974;DHT22;8603;46.944;7.412;2023-07-20T11:05:32;29.90;68.50
16974;DHT22;8603;46.944;7.412;2023-07-20T11:07:59;29.80;68.20
16974;DHT22;8603;46.944;7.412;2023-07-20T11:10:25;29.80;68.80
16974;DHT22;8603;46.944;7.412;2023-07-20T11:13:16;29.80;69.00
16974;DHT22;8603;46.944;7.412;2023-07-20T11:16:02;29.80;70.20
16974;DHT22;8603;46.944;7.412;2023-07-20T11:18:33;29.70;72.20
16974;DHT22;8603;46.944;7.412;2023-07-20T11:21:01;29.70;70.20
16974;DHT22;8603;46.944;7.412;2023-07-20T11:23:27;29.60;70.20
16974;DHT22;8603;46.944;7.412;2023-07-20T11:25:54;29.60;71.00
16974;DHT22;8603;46.944;7.412;2023-07-20T11:28:20;29.50;71.70
16974;DHT22;8603;46.944;7.412;2023-07-20T11:30:52;29.60;69.80
16974;DHT22;8603;46.944;7.412;2023-07-20T11:33:19;29.50;70.90
16974;DHT22;8603;46.944;7.412;2023-07-20T11:35:45;29.60;71.00
16974;DHT22;8603;46.944;7.412;2023-07-20T11:38:16;29.60;68.70
16974;DHT22;8603;46.944;7.412;2023-07-20T11:40:47;29.50;67.40
16974;DHT22;8603;46.944;7.412;2023-07-20T11:43:13;29.30;70.30
16974;DHT22;8603;46.944;7.412;2023-07-20T11:45:39;29.00;69.90
16974;DHT22;8603;46.944;7.412;2023-07-20T11:48:05;28.90;69.50
16974;DHT22;8603;46.944;7.412;2023-07-20T11:50:31;28.80;69.70
16974;DHT22;8603;46.944;7.412;2023-07-20T11:52:57;28.80;69.60
16974;DHT22;8603;46.944;7.412;2023-07-20T11:55:23;28.80;71.70
16974;DHT22;8603;46.944;7.412;2023-07-20T11:58:02;28.90;68.00
16974;DHT22;8603;46.944;7.412;2023-07-20T12:00:27;28.90;68.30
16974;DHT22;8603;46.944;7.412;2023-07-20T12:02:53;28.90;68.00
16974;DHT22;8603;46.944;7.412;2023-07-20T12:05:19;28.90;68.80
16974;DHT22;8603;46.944;7.412;2023-07-20T12:07:45;28.90;69.80
16974;DHT22;8603;46.944;7.412;2023-07-20T12:10:11;29.00;68.80
16974;DHT22;8603;46.944;7.412;2023-07-20T12:12:42;29.00;67.80
16974;DHT22;8603;46.944;7.412;2023-07-20T12:17:49;29.00;70.20
16974;DHT22;8603;46.944;7.412;2023-07-20T12:20:26;29.00;69.60
16974;DHT22;8603;46.944;7.412;2023-07-20T12:22:52;29.00;69.00
16974;DHT22;8603;46.944;7.412;2023-07-20T12:25:17;28.90;68.00
16974;DHT22;8603;46.944;7.412;2023-07-20T12:27:45;28.80;67.90
16974;DHT22;8603;46.944;7.412;2023-07-20T12:30:12;28.80;68.20
16974;DHT22;8603;46.944;7.412;2023-07-20T12:32:39;28.90;69.30
16974;DHT22;8603;46.944;7.412;2023-07-20T12:35:05;28.90;67.70
16974;DHT22;8603;46.944;7.412;2023-07-20T12:37:31;28.90;67.80
16974;DHT22;8603;46.944;7.412;2023-07-20T12:39:57;29.00;67.20
16974;DHT22;8603;46.944;7.412;2023-07-20T12:42:22;29.10;67.90
16974;DHT22;8603;46.944;7.412;2023-07-20T12:44:49;29.10;65.50
16974;DHT22;8603;46.944;7.412;2023-07-20T12:47:14;29.10;65.90
16974;DHT22;8603;46.944;7.412;2023-07-20T12:49:42;29.10;66.20
16974;DHT22;8603;46.944;7.412;2023-07-20T12:52:10;29.20;67.00
16974;DHT22;8603;46.944;7.412;2023-07-20T12:54:36;29.30;66.80
16974;DHT22;8603;46.944;7.412;2023-07-20T12:57:02;29.20;65.80
16974;DHT22;8603;46.944;7.412;2023-07-20T12:59:28;29.20;65.60
16974;DHT22;8603;46.944;7.412;2023-07-20T13:01:54;29.20;65.90
16974;DHT22;8603;46.944;7.412;2023-07-20T13:04:20;29.10;66.10
16974;DHT22;8603;46.944;7.412;2023-07-20T13:06:45;28.80;65.60
16974;DHT22;8603;46.944;7.412;2023-07-20T13:09:11;28.80;66.60
16974;DHT22;8603;46.944;7.412;2023-07-20T13:11:36;28.90;68.20
16974;DHT22;8603;46.944;7.412;2023-07-20T13:14:02;29.00;66.50
16974;DHT22;8603;46.944;7.412;2023-07-20T13:16:28;29.10;67.00
16974;DHT22;8603;46.944;7.412;2023-07-20T13:18:53;29.10;67.40
16974;DHT22;8603;46.944;7.412;2023-07-20T13:21:19;29.10;66.40
16974;DHT22;8603;46.944;7.412;2023-07-20T13:23:48;29.00;66.00
16974;DHT22;8603;46.944;7.412;2023-07-20T13:26:14;29.00;66.20
16974;DHT22;8603;46.944;7.412;2023-07-20T13:28:40;29.10;66.70
16974;DHT22;8603;46.944;7.412;2023-07-20T13:31:06;29.10;65.70
16974;DHT22;8603;46.944;7.412;2023-07-20T13:33:33;29.10;65.30
16974;DHT22;8603;46.944;7.412;2023-07-20T13:35:59;29.10;64.20
16974;DHT22;8603;46.944;7.412;2023-07-20T13:38:24;29.10;65.30
16974;DHT22;8603;46.944;7.412;2023-07-20T13:40:50;29.10;65.50
16974;DHT22;8603;46.944;7.412;2023-07-20T13:43:16;29.10;66.20
16974;DHT22;8603;46.944;7.412;2023-07-20T13:45:41;29.20;66.20
16974;DHT22;8603;46.944;7.412;2023-07-20T13:48:07;29.30;66.80
16974;DHT22;8603;46.944;7.412;2023-07-20T13:50:32;29.30;65.10
16974;DHT22;8603;46.944;7.412;2023-07-20T13:52:58;29.40;65.50
16974;DHT22;8603;46.944;7.412;2023-07-20T13:55:23;29.40;66.20
16974;DHT22;8603;46.944;7.412;2023-07-20T13:57:49;29.40;65.50
16974;DHT22;8603;46.944;7.412;2023-07-20T14:00:16;29.40;66.10
16974;DHT22;8603;46.944;7.412;2023-07-20T14:02:41;29.40;66.40
16974;DHT22;8603;46.944;7.412;2023-07-20T14:05:07;29.40;64.50
16974;DHT22;8603;46.944;7.412;2023-07-20T14:07:35;29.40;64.70
16974;DHT22;8603;46.944;7.412;2023-07-20T14:10:01;29.30;65.10
16974;DHT22;8603;46.944;7.412;2023-07-20T14:12:26;29.40;64.80
16974;DHT22;8603;46.944;7.412;2023-07-20T14:14:54;29.30;65.60
16974;DHT22;8603;46.944;7.412;2023-07-20T14:17:21;29.40;65.40
16974;DHT22;8603;46.944;7.412;2023-07-20T14:19:47;29.50;65.90
16974;DHT22;8603;46.944;7.412;2023-07-20T14:22:12;29.50;66.80
16974;DHT22;8603;46.944;7.412;2023-07-20T14:24:38;29.60;66.10
16974;DHT22;8603;46.944;7.412;2023-07-20T14:27:04;29.70;66.50
16974;DHT22;8603;46.944;7.412;2023-07-20T14:29:30;29.70;66.00
16974;DHT22;8603;46.944;7.412;2023-07-20T14:31:57;29.80;65.40
16974;DHT22;8603;46.944;7.412;2023-07-20T14:34:23;29.90;64.10
16974;DHT22;8603;46.944;7.412;2023-07-20T14:36:48;29.80;65.10
16974;DHT22;8603;46.944;7.412;2023-07-20T14:39:15;29.80;65.50
16974;DHT22;8603;46.944;7.412;2023-07-20T14:41:40;29.90;66.10
16974;DHT22;8603;46.944;7.412;2023-07-20T14:44:06;29.90;65.00
16974;DHT22;8603;46.944;7.412;2023-07-20T14:46:32;29.80;66.00
16974;DHT22;8603;46.944;7.412;2023-07-20T14:48:58;29.80;65.00
16974;DHT22;8603;46.944;7.412;2023-07-20T14:51:24;29.80;66.40
16974;DHT22;8603;46.944;7.412;2023-07-20T14:53:49;29.70;66.00
16974;DHT22;8603;46.944;7.412;2023-07-20T14:56:15;29.60;66.90
16974;DHT22;8603;46.944;7.412;2023-07-20T14:58:41;29.70;66.50
16974;DHT22;8603;46.944;7.412;2023-07-20T15:01:06;29.60;65.90
16974;DHT22;8603;46.944;7.412;2023-07-20T15:03:32;29.60;67.40
16974;DHT22;8603;46.944;7.412;2023-07-20T15:05:57;29.70;66.50
16974;DHT22;8603;46.944;7.412;2023-07-20T15:08:23;29.80;65.50
16974;DHT22;8603;46.944;7.412;2023-07-20T15:10:49;29.80;64.20
16974;DHT22;8603;46.944;7.412;2023-07-20T15:13:15;29.80;64.60
16974;DHT22;8603;46.944;7.412;2023-07-20T15:15:40;29.90;65.20
16974;DHT22;8603;46.944;7.412;2023-07-20T15:18:07;29.80;66.10
16974;DHT22;8603;46.944;7.412;2023-07-20T15:20:32;29.80;65.50
16974;DHT22;8603;46.944;7.412;2023-07-20T15:22:58;29.80;66.10
16974;DHT22;8603;46.944;7.412;2023-07-20T15:25:24;29.60;65.60
16974;DHT22;8603;46.944;7.412;2023-07-20T15:27:49;29.30;66.80
16974;DHT22;8603;46.944;7.412;2023-07-20T15:30:15;29.30;66.90
16974;DHT22;8603;46.944;7.412;2023-07-20T15:32:41;29.40;66.00
16974;DHT22;8603;46.944;7.412;2023-07-20T15:35:08;29.50;65.60
16974;DHT22;8603;46.944;7.412;2023-07-20T15:37:34;29.60;66.50
16974;DHT22;8603;46.944;7.412;2023-07-20T15:39:59;29.70;65.80
16974;DHT22;8603;46.944;7.412;2023-07-20T15:42:29;29.60;66.20
16974;DHT22;8603;46.944;7.412;2023-07-20T15:44:55;29.70;66.70
16974;DHT22;8603;46.944;7.412;2023-07-20T15:47:21;29.70;65.20
16974;DHT22;8603;46.944;7.412;2023-07-20T15:49:47;29.50;65.50
16974;DHT22;8603;46.944;7.412;2023-07-20T15:52:13;29.60;65.90
16974;DHT22;8603;46.944;7.412;2023-07-20T15:54:40;29.60;66.10
16974;DHT22;8603;46.944;7.412;2023-07-20T15:57:07;29.50;65.20
16974;DHT22;8603;46.944;7.412;2023-07-20T15:59:33;29.40;66.00